Salisbury, NH (03268)

5:25 PM EDT on May 06, 2015 (GMT -0400)
Rainbow Dr. | | Change Station
CLOSE
Current Station
Personal Weather Station
Location: Loudon, NH
Elevation: 554 ft
Nearby Weather Stations

Elev 554 ft 43.29 °N, 71.51 °W | Updated 32 seconds ago

Clear
Clear
76.5 °F
Feels Like 76 °F
N
2.0
Wind Variable Wind from WSW
Gusts 2.5 mph

Today
High -- | Low -- °F
--% Chance of Precip.
Yesterday
High -- | Low -- °F
Precip. -- in
5:32 AM 7:53 PM
Waning Gibbous, 92% visible
Pressure 30.15 in
Visibility 10.0 miles
Clouds Clear
Heat Index 76 °F
Dew Point 30 °F
Humidity 18%
Rainfall 0.00 in
Snow Depth Not available.
UV 2.0 out of 12
Pollen 11.00 out of 12
Air Quality Not available.
Flu Activity Regional
METAR KCON 062051Z AUTO 29009G15KT 10SM CLR 26/M03 A3015 RMK AO2 SLP209 T02611033 56022

More Conditions Fewer Conditions

Pressure 30.15 in
Visibility 10.0 miles
Clouds Clear
Heat Index 76 °F
Dew Point 30 °F
Humidity 18%
Rainfall 0.00 in
Snow Depth Not available.
UV 2.0 out of 12
Pollen 11.00 out of 12
Air Quality Not available.
Flu Activity Regional
METAR KCON 062051Z AUTO 29009G15KT 10SM CLR 26/M03 A3015 RMK AO2 SLP209 T02611033 56022

More Conditions Fewer Conditions

10-Day Weather Forecast

Almanac

Astronomy

May. 06, 2015 Rise Set
Actual Time
Civil Twilight
Nautical Twilight
Astronomical Twilight
Moon
Length of Visible Light
Length of Day
Tomorrow will be .
, % of the Moon is Illuminated

Today's Extremes

State Highs State Lows

Community

WunderPhotos

Upload Photos

1,819,021 photos uploaded!

WunderBlogs® & News

Nearby

Air Quality

  Air Quality AQ Index Pollutant
Not available.

Snow Depth

Station Depth Elevation

Earthquake Activity

City Distance Mag. Time & Date
Minimum magnitude displayed is 2.5.

Coastal Water Temperatures

Place Temperature

Stations

Nearby Weather Stations

Station Location Temp. Windchill Dew Point Humidity Wind Precip. Elev Updated Type